Time;durP1;ratioP1;P1;durP2;ratioP2;P2;SDS_P1;SDS_P2;PMS_P1;PMS_P2;Temp;Humidity;BMP_temperature;BMP_pressure;BME280_temperature;BME280_humidity;BME280_pressure;Samples;Min_cycle;Max_cycle;Signal;HPM_P1;HPM_P2
2024/03/20 00:01:30;;;;;;;3.92;2.03;;;;;;;7.39;100.00;100846.63;5015376;28;20092;-73
2024/03/20 00:03:56;;;;;;;5.38;2.53;;;;;;;7.42;100.00;100842.78;4987031;28;20033;-72
2024/03/20 00:06:23;;;;;;;2.85;1.85;;;;;;;7.44;100.00;100847.00;5009076;28;20038;-72
2024/03/20 00:08:48;;;;;;;3.50;1.98;;;;;;;7.45;100.00;100854.03;5004108;28;20034;-72
2024/03/20 00:11:14;;;;;;;4.30;2.40;;;;;;;7.42;100.00;100854.34;5000933;28;20060;-72
2024/03/20 00:13:40;;;;;;;3.40;1.77;;;;;;;7.42;100.00;100853.50;4998865;28;20373;-72
2024/03/20 00:16:06;;;;;;;1.80;1.40;;;;;;;7.39;100.00;100856.47;5014495;28;20073;-72
2024/03/20 00:18:31;;;;;;;1.35;1.13;;;;;;;7.37;100.00;100855.78;5013964;28;20036;-72
2024/03/20 00:20:57;;;;;;;2.30;1.27;;;;;;;7.35;100.00;100863.94;4998616;28;20185;-72
2024/03/20 00:23:23;;;;;;;2.20;1.52;;;;;;;7.32;100.00;100861.59;5014150;28;20033;-72
2024/03/20 00:25:49;;;;;;;1.42;1.00;;;;;;;7.31;100.00;100859.91;4999607;28;20037;-72
2024/03/20 00:28:15;;;;;;;1.35;1.17;;;;;;;7.29;100.00;100855.72;5005807;28;20131;-72
2024/03/20 00:30:41;;;;;;;1.35;0.95;;;;;;;7.30;100.00;100857.38;5012114;28;20440;-73
2024/03/20 00:33:06;;;;;;;1.63;1.13;;;;;;;7.27;100.00;100864.72;5013995;28;20391;-72
2024/03/20 00:35:37;;;;;;;0.88;0.80;;;;;;;7.26;100.00;100863.03;5014985;28;20074;-72
2024/03/20 00:38:04;;;;;;;1.30;1.10;;;;;;;7.23;100.00;100874.03;5014282;28;20520;-72
2024/03/20 00:40:30;;;;;;;1.85;0.77;;;;;;;7.24;100.00;100872.22;5047967;28;20472;-72
2024/03/20 00:42:55;;;;;;;0.80;0.80;;;;;;;7.25;100.00;100866.72;5037317;28;20057;-72
2024/03/20 00:45:21;;;;;;;1.60;0.90;;;;;;;7.25;100.00;100860.50;5021227;28;20498;-72
2024/03/20 00:47:47;;;;;;;0.95;0.80;;;;;;;7.20;100.00;100860.97;5021237;28;20101;-72
2024/03/20 00:50:12;;;;;;;0.63;0.63;;;;;;;7.20;100.00;100863.66;5021252;28;20029;-71
2024/03/20 00:52:38;;;;;;;0.50;0.50;;;;;;;7.17;100.00;100865.78;5001115;28;20034;-72
2024/03/20 00:55:04;;;;;;;0.70;0.60;;;;;;;7.16;100.00;100858.75;4998126;28;20180;-72
2024/03/20 00:57:30;;;;;;;1.50;0.80;;;;;;;7.15;100.00;100867.78;5030799;28;20033;-72
2024/03/20 00:59:56;;;;;;;1.08;0.60;;;;;;;7.16;100.00;100858.75;4998076;28;20030;-72
2024/03/20 01:02:21;;;;;;;0.85;0.73;;;;;;;7.19;100.00;100863.78;5013796;28;20033;-72
2024/03/20 01:04:47;;;;;;;0.75;0.75;;;;;;;7.14;100.00;100868.75;4997657;28;20049;-72
2024/03/20 01:07:13;;;;;;;2.85;2.60;;;;;;;7.11;100.00;100871.72;4998001;28;20532;-72
2024/03/20 01:09:38;;;;;;;1.55;0.90;;;;;;;7.10;100.00;100872.72;4981612;28;20053;-72
2024/03/20 01:12:04;;;;;;;0.80;0.70;;;;;;;7.02;100.00;100863.63;4997756;28;20030;-72
2024/03/20 01:14:30;;;;;;;5.75;3.75;;;;;;;7.05;100.00;100863.31;4998291;28;20044;-72
2024/03/20 01:16:56;;;;;;;1.05;0.90;;;;;;;7.05;100.00;100867.81;5014040;28;20447;-72
2024/03/20 01:19:21;;;;;;;0.60;0.60;;;;;;;7.09;100.00;100868.34;4997752;28;20388;-72
2024/03/20 01:21:47;;;;;;;2.55;1.02;;;;;;;7.08;100.00;100874.72;4997509;28;20050;-71
2024/03/20 01:24:12;;;;;;;0.80;0.80;;;;;;;7.11;100.00;100872.56;4997364;28;20034;-72
2024/03/20 01:26:38;;;;;;;2.17;1.65;;;;;;;7.13;100.00;100880.44;4997496;28;20036;-72
2024/03/20 01:29:04;;;;;;;1.10;0.77;;;;;;;7.14;100.00;100876.78;5016357;28;20123;-72
2024/03/20 01:31:30;;;;;;;1.52;1.25;;;;;;;7.11;100.00;100875.25;5020513;28;20029;-72
2024/03/20 01:33:56;;;;;;;0.70;0.70;;;;;;;7.14;100.00;100882.13;5019585;28;20044;-72
2024/03/20 01:36:21;;;;;;;2.05;1.55;;;;;;;7.13;100.00;100881.28;4997319;28;20034;-73
2024/03/20 01:38:48;;;;;;;3.40;2.15;;;;;;;7.16;100.00;100875.63;5019199;28;20127;-72
2024/03/20 01:41:13;;;;;;;4.13;2.40;;;;;;;7.12;100.00;100868.91;5017041;28;20093;-72
2024/03/20 01:43:39;;;;;;;1.20;1.10;;;;;;;7.12;100.00;100873.41;5028631;28;20037;-72
2024/03/20 01:46:25;;;;;;;1.63;1.52;;;;;;;7.12;100.00;100870.72;5000188;28;20040;-72
2024/03/20 01:48:51;;;;;;;1.92;1.63;;;;;;;7.11;100.00;100871.72;5017194;28;20041;-72
2024/03/20 01:51:17;;;;;;;2.35;2.05;;;;;;;7.11;100.00;100874.41;5048687;28;20083;-72
2024/03/20 01:53:43;;;;;;;1.35;1.20;;;;;;;7.12;100.00;100878.75;5006797;28;20441;-72
2024/03/20 01:56:08;;;;;;;3.22;2.22;;;;;;;7.13;100.00;100881.28;5007155;28;20125;-72
2024/03/20 01:58:34;;;;;;;11.02;3.38;;;;;;;7.12;100.00;100889.44;4996963;28;20080;-72
2024/03/20 02:01:00;;;;;;;7.20;3.10;;;;;;;7.14;100.00;100884.78;5049318;28;20033;-72
2024/03/20 02:03:25;;;;;;;7.95;3.15;;;;;;;7.14;100.00;100888.31;5016278;28;20030;-72
2024/03/20 02:05:51;;;;;;;8.50;5.22;;;;;;;7.14;100.00;100890.97;5000595;28;20033;-72
2024/03/20 02:08:17;;;;;;;0.93;0.93;;;;;;;7.16;100.00;100893.50;5017044;28;20079;-72
2024/03/20 02:10:42;;;;;;;8.05;4.93;;;;;;;7.15;100.00;100898.03;5019119;28;20048;-72
2024/03/20 02:13:08;;;;;;;7.40;4.15;;;;;;;7.16;100.00;100890.84;5036119;28;20372;-71
2024/03/20 02:15:34;;;;;;;7.88;4.90;;;;;;;7.17;100.00;100893.38;5019342;28;20045;-72
2024/03/20 02:18:00;;;;;;;7.57;3.42;;;;;;;7.17;100.00;100893.38;5015083;28;20060;-72
2024/03/20 02:20:26;;;;;;;4.75;1.23;;;;;;;7.19;100.00;100894.03;5019957;28;20527;-72
2024/03/20 02:22:52;;;;;;;5.82;3.83;;;;;;;7.17;100.00;100893.38;4999897;28;20133;-72
2024/03/20 02:25:19;;;;;;;8.35;4.20;;;;;;;7.17;100.00;100897.84;5010630;28;20124;-72
2024/03/20 02:27:46;;;;;;;2.65;2.20;;;;;;;7.17;100.00;100901.41;5009141;28;20388;-72
2024/03/20 02:30:13;;;;;;;6.80;3.88;;;;;;;7.16;100.00;100893.50;5006177;28;20372;-72
2024/03/20 02:32:40;;;;;;;4.45;2.80;;;;;;;7.13;100.00;100897.34;5017664;28;20059;-72
2024/03/20 02:35:06;;;;;;;3.15;2.65;;;;;;;7.11;100.00;100904.66;4999665;28;20034;-72
2024/03/20 02:37:32;;;;;;;2.58;2.00;;;;;;;7.10;100.00;100905.66;5014024;28;20124;-72
2024/03/20 02:39:58;;;;;;;6.95;4.05;;;;;;;7.08;100.00;100904.97;5000740;28;20124;-72
2024/03/20 02:42:24;;;;;;;7.03;3.40;;;;;;;7.07;100.00;100915.81;5009209;28;20043;-72
2024/03/20 02:44:50;;;;;;;8.10;4.68;;;;;;;7.03;100.00;100905.41;5035170;28;20115;-71
2024/03/20 02:47:17;;;;;;;7.38;4.38;;;;;;;7.02;100.00;100905.56;5012215;28;20037;-72
2024/03/20 02:49:43;;;;;;;3.13;1.90;;;;;;;7.03;100.00;100908.06;5035464;28;20114;-71
2024/03/20 02:52:09;;;;;;;6.85;3.28;;;;;;;7.01;100.00;100920.78;5018909;28;20036;-72
2024/03/20 02:54:37;;;;;;;4.70;2.85;;;;;;;7.02;100.00;100917.09;5017552;28;20037;-72
2024/03/20 02:57:03;;;;;;;4.70;2.92;;;;;;;7.04;100.00;100919.63;5010544;28;20029;-72
2024/03/20 02:59:29;;;;;;;6.65;3.17;;;;;;;7.03;100.00;100910.75;5020194;28;20490;-72
2024/03/20 03:01:54;;;;;;;6.30;3.88;;;;;;;7.01;100.00;100919.91;5023123;28;20040;-71
2024/03/20 03:04:20;;;;;;;7.25;3.35;;;;;;;6.98;100.00;100929.06;5022567;28;20399;-72
2024/03/20 03:06:46;;;;;;;3.78;2.13;;;;;;;6.99;100.00;100921.91;5011854;28;20076;-72
2024/03/20 03:09:16;;;;;;;4.10;2.50;;;;;;;6.98;100.00;100934.41;5011202;28;20034;-72
2024/03/20 03:11:46;;;;;;;6.10;3.00;;;;;;;6.99;100.00;100930.75;5010572;28;20033;-71
2024/03/20 03:14:12;;;;;;;8.20;3.70;;;;;;;6.98;100.00;100937.09;5011959;28;20042;-72
2024/03/20 03:16:38;;;;;;;6.53;3.20;;;;;;;6.98;100.00;100933.56;5035133;28;20044;-72
2024/03/20 03:19:07;;;;;;;6.03;3.30;;;;;;;6.97;100.00;100940.75;5022831;28;20025;-72
2024/03/20 03:21:34;;;;;;;7.53;4.43;;;;;;;6.93;100.00;100944.72;5033711;28;20045;-72
2024/03/20 03:23:59;;;;;;;6.18;2.85;;;;;;;6.94;100.00;100951.75;5038722;28;20044;-71
2024/03/20 03:26:25;;;;;;;5.13;2.78;;;;;;;6.93;100.00;100950.06;5018885;28;20038;-72
2024/03/20 03:28:51;;;;;;;4.82;2.65;;;;;;;6.92;100.00;100952.88;5041974;28;20372;-71
2024/03/20 03:31:17;;;;;;;4.45;2.60;;;;;;;6.92;100.00;100947.53;5008384;28;20072;-71
2024/03/20 03:33:42;;;;;;;7.72;2.85;;;;;;;6.89;100.00;100946.00;5015652;28;20350;-72
2024/03/20 03:36:09;;;;;;;6.88;2.88;;;;;;;6.87;100.00;100939.94;5015798;28;20030;-71
2024/03/20 03:38:35;;;;;;;5.28;3.67;;;;;;;6.84;100.00;100942.94;5018231;28;20040;-71
2024/03/20 03:41:02;;;;;;;7.32;4.13;;;;;;;6.82;100.00;100936.88;5030252;28;20037;-72
2024/03/20 03:43:28;;;;;;;3.70;1.92;;;;;;;6.78;100.00;100944.34;5014082;28;20037;-71
2024/03/20 03:45:54;;;;;;;4.00;2.58;;;;;;;6.76;100.00;100948.16;5017307;28;20044;-71
2024/03/20 03:48:20;;;;;;;6.78;3.40;;;;;;;6.72;100.00;100944.09;5003698;28;20033;-72
2024/03/20 03:50:49;;;;;;;8.60;4.30;;;;;;;6.70;100.00;100944.25;5024053;28;20040;-71
2024/03/20 03:53:15;;;;;;;2.30;1.77;;;;;;;6.69;100.00;100950.56;5005778;28;20083;-72
2024/03/20 03:55:40;;;;;;;3.20;2.47;;;;;;;6.67;100.00;100946.34;5017116;28;20036;-72
2024/03/20 03:58:06;;;;;;;3.97;2.58;;;;;;;6.65;100.00;100951.88;5006453;28;20029;-72
2024/03/20 04:00:32;;;;;;;3.97;2.00;;;;;;;6.66;100.00;100947.34;5003502;28;20061;-72
2024/03/20 04:02:57;;;;;;;4.85;3.05;;;;;;;6.65;100.00;100957.19;5023394;28;20025;-71
2024/03/20 04:05:24;;;;;;;6.32;2.85;;;;;;;6.63;100.00;100961.84;5003973;28;20021;-72
2024/03/20 04:07:52;;;;;;;2.45;1.95;;;;;;;6.66;100.00;100966.06;5007246;28;20041;-72
2024/03/20 04:10:18;;;;;;;4.93;2.78;;;;;;;6.63;100.00;100972.53;5008508;28;20060;-72
2024/03/20 04:12:43;;;;;;;3.10;2.35;;;;;;;6.61;100.00;100979.84;5037250;28;20122;-72
2024/03/20 04:15:12;;;;;;;2.83;2.20;;;;;;;6.58;100.00;100983.66;5009354;28;20036;-71
2024/03/20 04:17:38;;;;;;;2.60;1.85;;;;;;;6.59;100.00;100996.03;5023516;28;20109;-72
2024/03/20 04:20:05;;;;;;;5.22;2.28;;;;;;;6.60;100.00;101013.75;4998854;28;20473;-71
2024/03/20 04:22:31;;;;;;;3.83;2.20;;;;;;;6.58;100.00;101013.03;5048951;28;20049;-72
2024/03/20 04:24:57;;;;;;;2.35;1.92;;;;;;;6.56;100.00;101011.50;5002728;28;20421;-72
2024/03/20 04:27:22;;;;;;;4.13;2.55;;;;;;;6.54;100.00;101013.50;5030395;28;20391;-72
2024/03/20 04:29:48;;;;;;;3.65;1.90;;;;;;;6.54;100.00;101021.50;5002484;28;20036;-71
2024/03/20 04:32:14;;;;;;;3.50;1.92;;;;;;;6.55;100.00;101032.03;5001425;28;20507;-72
2024/03/20 04:34:40;;;;;;;3.55;1.70;;;;;;;6.58;100.00;101047.75;5014399;28;20089;-72
2024/03/20 04:37:06;;;;;;;3.65;1.83;;;;;;;6.59;100.00;101045.97;5016401;28;20049;-71
2024/03/20 04:39:32;;;;;;;5.22;2.70;;;;;;;6.59;100.00;101062.00;5043573;28;20538;-72
2024/03/20 04:41:58;;;;;;;4.93;2.45;;;;;;;6.57;100.00;101066.63;5044315;28;20136;-72
2024/03/20 04:44:24;;;;;;;3.25;2.50;;;;;;;6.56;100.00;101080.94;5035911;28;20563;-72
2024/03/20 04:46:50;;;;;;;2.22;1.73;;;;;;;6.52;100.00;101080.41;5021196;28;20051;-72
2024/03/20 04:49:16;;;;;;;2.22;1.90;;;;;;;6.51;100.00;101089.41;5017998;28;20033;-72
2024/03/20 04:51:41;;;;;;;2.33;1.30;;;;;;;6.50;100.00;101095.72;5004054;28;20129;-71
2024/03/20 04:54:07;;;;;;;2.95;1.67;;;;;;;6.46;100.00;101097.00;5004713;28;20444;-72
2024/03/20 04:56:33;;;;;;;2.33;1.52;;;;;;;6.43;100.00;101102.63;5020515;28;20037;-72
2024/03/20 04:58:58;;;;;;;3.13;2.15;;;;;;;6.43;100.00;101116.00;5001802;28;20034;-74
2024/03/20 05:01:24;;;;;;;4.55;1.30;;;;;;;6.41;100.00;101128.63;5015196;28;20434;-73
2024/03/20 05:03:50;;;;;;;0.82;0.82;;;;;;;6.42;100.00;101137.50;5035389;28;20372;-71
2024/03/20 05:06:15;;;;;;;4.18;1.55;;;;;;;6.42;100.00;101151.69;5006900;28;20057;-71
2024/03/20 05:08:41;;;;;;;3.90;1.95;;;;;;;6.43;100.00;101148.03;5036791;28;20029;-71
2024/03/20 05:11:07;;;;;;;4.30;1.10;;;;;;;6.44;100.00;101151.56;5001139;28;20042;-73
2024/03/20 05:13:32;;;;;;;5.03;2.88;;;;;;;6.46;100.00;101163.78;5020034;28;20040;-71
2024/03/20 05:15:59;;;;;;;1.13;1.05;;;;;;;6.49;100.00;101160.00;5020292;28;20067;-73
2024/03/20 05:18:25;;;;;;;4.72;2.92;;;;;;;6.51;100.00;101161.53;5016860;28;20476;-71
2024/03/20 05:20:50;;;;;;;7.35;2.92;;;;;;;6.51;100.00;101166.88;5014901;28;20041;-71
2024/03/20 05:23:16;;;;;;;6.47;3.63;;;;;;;6.49;100.00;101163.50;5018607;28;20029;-71
2024/03/20 05:25:42;;;;;;;4.07;2.40;;;;;;;6.51;100.00;101169.56;5018918;28;20383;-71
2024/03/20 05:28:07;;;;;;;8.23;4.40;;;;;;;6.53;100.00;101172.91;4999517;28;20033;-71
2024/03/20 05:30:33;;;;;;;1.38;1.27;;;;;;;6.53;100.00;101169.41;5008214;28;20076;-72
2024/03/20 05:32:59;;;;;;;8.32;3.95;;;;;;;6.56;100.00;101174.47;5001560;28;20029;-71
2024/03/20 05:35:27;;;;;;;9.93;4.13;;;;;;;6.57;100.00;101165.47;5029964;28;20124;-71
2024/03/20 05:37:53;;;;;;;8.77;4.32;;;;;;;6.57;100.00;101173.50;5023904;28;20033;-71
2024/03/20 05:40:19;;;;;;;13.32;6.05;;;;;;;6.57;100.00;101177.00;5002163;28;20044;-72
2024/03/20 05:42:45;;;;;;;8.63;4.43;;;;;;;6.58;100.00;101180.50;5001162;28;20026;-71
2024/03/20 05:45:10;;;;;;;12.90;6.10;;;;;;;6.57;100.00;101185.03;5021693;28;20082;-71
2024/03/20 05:47:36;;;;;;;11.70;5.70;;;;;;;6.56;100.00;101183.34;5008345;28;20041;-71
2024/03/20 05:50:02;;;;;;;6.93;3.53;;;;;;;6.56;100.00;101194.03;5004567;28;20081;-71
2024/03/20 05:52:27;;;;;;;10.55;5.43;;;;;;;6.55;100.00;101192.31;5006629;28;20033;-71
2024/03/20 05:54:56;;;;;;;10.18;5.07;;;;;;;6.55;100.00;101203.00;5006812;28;20476;-71
2024/03/20 05:57:22;;;;;;;7.88;4.40;;;;;;;6.57;100.00;101206.41;5028440;28;20106;-71
2024/03/20 05:59:47;;;;;;;4.75;3.05;;;;;;;6.55;100.00;101205.69;5019141;28;20395;-71
2024/03/20 06:02:13;;;;;;;6.45;3.78;;;;;;;6.55;100.00;101207.53;5002758;28;20049;-71
2024/03/20 06:04:39;;;;;;;6.68;2.78;;;;;;;6.51;100.00;101219.44;5016330;28;20033;-71
2024/03/20 06:07:04;;;;;;;3.63;2.22;;;;;;;6.40;100.00;101209.72;5009321;28;20468;-71
2024/03/20 06:09:32;;;;;;;2.70;1.90;;;;;;;6.27;100.00;101204.66;5003136;28;20047;-71
2024/03/20 06:11:58;;;;;;;9.23;3.90;;;;;;;6.19;100.00;101206.31;4996671;28;20139;-71
2024/03/20 06:14:25;;;;;;;9.57;4.15;;;;;;;6.07;100.00;101205.59;5064337;28;20047;-71
2024/03/20 06:16:51;;;;;;;6.15;3.60;;;;;;;5.96;100.00;101219.88;5019491;28;20039;-71
2024/03/20 06:19:17;;;;;;;4.13;2.38;;;;;;;5.83;100.00;101213.91;5033343;28;20040;-71
2024/03/20 06:21:43;;;;;;;5.80;3.83;;;;;;;5.81;100.00;101229.19;5024343;28;20438;-71
2024/03/20 06:24:08;;;;;;;8.85;4.32;;;;;;;5.75;100.00;101227.91;4996426;28;20022;-71
2024/03/20 06:26:34;;;;;;;5.10;3.38;;;;;;;5.73;100.00;101233.34;5007233;28;20076;-71
2024/03/20 06:29:00;;;;;;;3.45;2.05;;;;;;;5.75;100.00;101243.06;5018701;28;20036;-71
2024/03/20 06:31:26;;;;;;;6.45;3.50;;;;;;;5.73;100.00;101249.38;5006862;28;20115;-71
2024/03/20 06:33:52;;;;;;;5.75;3.35;;;;;;;5.68;100.00;101253.41;5029143;28;20040;-71
2024/03/20 06:36:17;;;;;;;10.07;3.10;;;;;;;5.63;100.00;101247.63;5014671;28;20040;-71
2024/03/20 06:38:45;;;;;;;5.82;2.53;;;;;;;5.61;100.00;101261.13;5005462;28;20639;-71
2024/03/20 06:41:13;;;;;;;4.75;3.17;;;;;;;5.57;100.00;101257.00;5013297;28;20144;-71
2024/03/20 06:43:38;;;;;;;4.13;2.55;;;;;;;5.56;100.00;101266.00;4999874;28;20045;-71
2024/03/20 06:46:05;;;;;;;8.63;3.40;;;;;;;5.53;100.00;101268.94;5002735;28;20124;-71
2024/03/20 06:48:31;;;;;;;3.47;2.08;;;;;;;5.49;100.00;101270.16;4998929;28;20041;-72
2024/03/20 06:51:00;;;;;;;3.78;2.72;;;;;;;5.46;100.00;101270.41;5031762;28;20045;-71
2024/03/20 06:53:26;;;;;;;6.00;2.70;;;;;;;5.43;100.00;101274.19;5001725;28;20053;-71
2024/03/20 06:55:55;;;;;;;2.53;2.22;;;;;;;5.47;100.00;101280.09;5010127;28;20498;-71
2024/03/20 06:58:24;;;;;;;9.10;2.65;;;;;;;5.49;100.00;101283.47;5019563;28;20042;-72
2024/03/20 07:00:50;;;;;;;6.55;3.00;;;;;;;5.47;100.00;101282.75;5016237;28;20053;-72
2024/03/20 07:03:16;;;;;;;6.93;3.35;;;;;;;5.44;100.00;101288.34;5018344;28;20052;-71
2024/03/20 07:05:42;;;;;;;7.88;2.78;;;;;;;5.43;100.00;101300.00;5035114;28;20049;-71
2024/03/20 07:08:11;;;;;;;8.55;2.55;;;;;;;5.35;100.00;101291.81;5050176;28;20034;-71
2024/03/20 07:10:37;;;;;;;4.40;3.08;;;;;;;5.34;100.00;101301.63;5022419;28;20360;-72
2024/03/20 07:13:06;;;;;;;10.27;4.07;;;;;;;5.33;100.00;101293.75;5030218;28;20116;-72
2024/03/20 07:15:32;;;;;;;4.95;1.88;;;;;;;5.33;100.00;101293.75;5017240;28;20120;-71
2024/03/20 07:18:01;;;;;;;9.52;3.67;;;;;;;5.44;100.00;101297.19;5008500;28;20032;-72
2024/03/20 07:20:27;;;;;;;9.00;3.75;;;;;;;5.50;100.00;101301.16;5040526;28;20103;-71
2024/03/20 07:22:53;;;;;;;9.77;4.13;;;;;;;5.60;100.00;101304.75;5011398;28;20037;-71
2024/03/20 07:25:24;;;;;;;1.42;1.05;;;;;;;5.69;100.00;101304.00;5033045;28;20083;-71
2024/03/20 07:27:50;;;;;;;10.30;4.82;;;;;;;5.80;100.00;101312.91;5031428;28;20366;-71
2024/03/20 07:30:16;;;;;;;8.15;4.00;;;;;;;5.87;100.00;101317.56;5028694;28;20041;-72
2024/03/20 07:32:41;;;;;;;5.15;2.33;;;;;;;5.93;100.00;101317.09;5002480;28;20066;-71
2024/03/20 07:35:07;;;;;;;9.52;3.95;;;;;;;5.97;100.00;101306.97;5018936;28;20040;-71
2024/03/20 07:37:35;;;;;;;4.07;2.08;;;;;;;6.00;100.00;101324.56;5017528;28;20039;-71
2024/03/20 07:40:00;;;;;;;5.35;3.08;;;;;;;6.05;100.00;101317.00;5018607;28;20033;-73
2024/03/20 07:42:28;;;;;;;9.70;4.38;;;;;;;6.03;100.00;101316.28;5007157;28;20372;-71
2024/03/20 07:44:56;;;;;;;11.45;2.85;;;;;;;5.98;100.00;101321.16;5022304;28;20029;-71
2024/03/20 07:47:21;;;;;;;1.55;1.40;;;;;;;5.89;100.00;101322.78;5022595;28;20091;-71
2024/03/20 07:49:47;;;;;;;4.70;2.33;;;;;;;5.87;100.00;101330.91;5012678;28;20072;-72
2024/03/20 07:52:13;;;;;;;8.82;4.30;;;;;;;5.84;100.00;101333.84;5019406;28;20033;-71
2024/03/20 07:54:38;;;;;;;11.90;3.38;;;;;;;5.91;100.00;101334.19;5035071;28;20037;-72
2024/03/20 07:57:06;;;;;;;6.10;3.38;;;;;;;5.92;100.00;101338.53;5042755;28;20095;-71
2024/03/20 07:59:32;;;;;;;2.00;1.33;;;;;;;5.86;100.00;101328.38;5021886;28;20036;-72
2024/03/20 08:01:58;;;;;;;6.53;3.58;;;;;;;5.80;100.00;101336.91;4999026;28;20468;-72
2024/03/20 08:04:24;;;;;;;6.13;2.90;;;;;;;5.68;100.00;101344.97;5016911;28;20041;-72
2024/03/20 08:06:52;;;;;;;4.72;2.90;;;;;;;5.66;100.00;101352.28;5033163;28;20033;-72
2024/03/20 08:09:19;;;;;;;2.13;1.48;;;;;;;5.73;100.00;101355.25;5017486;28;20036;-73
2024/03/20 08:11:44;;;;;;;10.50;3.30;;;;;;;5.76;100.00;101354.16;5003055;28;20038;-72
2024/03/20 08:14:10;;;;;;;11.55;3.92;;;;;;;5.84;100.00;101368.53;4998465;28;20100;-72
2024/03/20 08:16:37;;;;;;;6.95;2.75;;;;;;;5.98;100.00;101371.88;4998904;28;20033;-72
2024/03/20 08:19:06;;;;;;;4.38;2.42;;;;;;;6.03;100.00;101380.34;5018105;28;20071;-72
2024/03/20 08:21:33;;;;;;;7.88;2.88;;;;;;;6.14;100.00;101381.13;5020671;28;20044;-73
2024/03/20 08:23:59;;;;;;;7.15;3.33;;;;;;;6.12;100.00;101382.25;5024193;28;20037;-72
2024/03/20 08:26:25;;;;;;;8.30;2.70;;;;;;;6.91;100.00;101385.13;5034995;28;20044;-72
2024/03/20 08:28:51;;;;;;;9.10;3.83;;;;;;;9.02;100.00;101387.75;5051104;28;20039;-72
2024/03/20 08:31:17;;;;;;;6.35;2.30;;;;;;;10.21;100.00;101391.00;5018451;28;20034;-72
2024/03/20 08:33:44;;;;;;;5.40;2.40;;;;;;;11.08;100.00;101397.19;5014767;28;20187;-72
2024/03/20 08:36:10;;;;;;;5.60;2.45;;;;;;;11.38;100.00;101393.06;5014935;28;20453;-72
2024/03/20 08:38:36;;;;;;;7.88;3.08;;;;;;;11.88;100.00;101400.22;4998410;28;20036;-73
2024/03/20 08:41:03;;;;;;;4.72;2.88;;;;;;;12.32;100.00;101397.09;4998476;28;20033;-73
2024/03/20 08:43:29;;;;;;;4.80;2.55;;;;;;;12.64;100.00;101408.81;5030901;28;20045;-73
2024/03/20 08:45:55;;;;;;;6.20;2.47;;;;;;;12.79;100.00;101403.56;4998383;28;20030;-73
2024/03/20 08:48:21;;;;;;;6.50;2.58;;;;;;;12.84;100.00;101408.44;4998292;28;20036;-73
2024/03/20 08:50:47;;;;;;;5.50;2.80;;;;;;;12.96;100.00;101412.41;4998498;28;20124;-73
2024/03/20 08:53:12;;;;;;;5.65;2.42;;;;;;;13.10;100.00;101417.09;4997889;28;20399;-73
2024/03/20 08:55:38;;;;;;;7.40;2.72;;;;;;;13.21;100.00;101418.56;4997897;28;20042;-73
2024/03/20 08:58:05;;;;;;;4.25;2.28;;;;;;;13.34;100.00;101428.81;5013887;28;20041;-73
2024/03/20 09:00:32;;;;;;;4.53;2.63;;;;;;;13.49;100.00;101437.81;4998116;28;20136;-73
2024/03/20 09:02:57;;;;;;;4.05;1.83;;;;;;;13.61;100.00;101444.50;5013698;28;20085;-73
2024/03/20 09:05:23;;;;;;;7.20;3.40;;;;;;;13.67;100.00;101447.53;4997711;28;20033;-74
2024/03/20 09:07:49;;;;;;;6.07;2.20;;;;;;;13.64;100.00;101454.13;5013844;28;20041;-72
2024/03/20 09:10:15;;;;;;;6.40;3.10;;;;;;;13.87;100.00;101442.50;4997704;28;20030;-73
2024/03/20 09:12:42;;;;;;;8.85;2.88;;;;;;;13.97;100.00;101452.03;5030080;28;20036;-73
2024/03/20 09:15:08;;;;;;;9.15;3.35;;;;;;;13.98;100.00;101442.88;5030054;28;20061;-73
2024/03/20 09:17:34;;;;;;;1.85;1.48;;;;;;;13.88;100.00;101447.69;5013785;28;20465;-72
2024/03/20 09:20:01;;;;;;;5.70;2.40;;;;;;;13.90;100.00;101444.84;4997379;28;20432;-72
2024/03/20 09:22:27;;;;;;;5.88;3.00;;;;;;;13.80;100.00;101442.34;4997668;28;20042;-72
2024/03/20 09:24:53;;;;;;;6.07;2.55;;;;;;;13.78;100.00;101444.38;5013590;28;20030;-72
2024/03/20 09:27:18;;;;;;;7.00;2.67;;;;;;;13.79;100.00;101456.91;4998024;28;20133;-72
2024/03/20 09:29:44;;;;;;;6.35;2.83;;;;;;;13.82;100.00;101464.66;4997792;28;20373;-72
2024/03/20 09:32:09;;;;;;;5.97;2.55;;;;;;;13.49;100.00;101472.94;4997531;28;20383;-72
2024/03/20 09:34:36;;;;;;;6.22;2.88;;;;;;;13.51;100.00;101470.09;5029707;28;20369;-72
2024/03/20 09:37:02;;;;;;;4.05;1.67;;;;;;;13.15;100.00;101467.84;4997355;28;20128;-72
2024/03/20 09:39:27;;;;;;;3.92;2.17;;;;;;;13.49;100.00;101472.13;5029828;28;20029;-72
2024/03/20 09:41:53;;;;;;;6.68;3.25;;;;;;;13.56;100.00;101478.50;4997563;28;20457;-72
2024/03/20 09:44:19;;;;;;;3.70;2.00;;;;;;;13.88;100.00;101480.13;5013295;28;20385;-72
2024/03/20 09:46:47;;;;;;;8.13;3.55;;;;;;;14.16;100.00;101482.31;5029958;28;20153;-72
2024/03/20 09:49:13;;;;;;;7.65;3.05;;;;;;;14.47;100.00;101493.00;4997131;28;20030;-72
2024/03/20 09:51:39;;;;;;;7.00;1.95;;;;;;;14.08;100.00;101492.16;5013956;28;20030;-72
2024/03/20 09:54:05;;;;;;;5.47;2.17;;;;;;;13.41;100.00;101491.91;5013432;28;20465;-71
2024/03/20 09:56:30;;;;;;;10.52;2.90;;;;;;;13.40;100.00;101501.88;5013240;28;20038;-72
2024/03/20 09:58:56;;;;;;;8.00;3.33;;;;;;;13.98;100.00;101515.91;5029612;28;20032;-72
2024/03/20 10:01:22;;;;;;;9.00;2.70;;;;;;;14.27;100.00;101500.81;5012788;28;20413;-72
2024/03/20 10:03:55;;;;;;;8.73;2.58;;;;;;;14.66;100.00;101495.25;4996712;28;20076;-72
2024/03/20 10:06:25;;;;;;;7.43;2.65;;;;;;;14.78;100.00;101503.72;5012596;28;20496;-72
2024/03/20 10:08:51;;;;;;;9.65;2.00;;;;;;;14.51;100.00;101514.09;5012826;28;20060;-72
2024/03/20 10:11:17;;;;;;;8.70;2.20;;;;;;;14.79;100.00;101518.09;4996670;28;20468;-72
2024/03/20 10:13:43;;;;;;;6.32;3.05;;;;;;;14.62;100.00;101520.13;4996673;28;20084;-72
2024/03/20 10:16:16;;;;;;;7.38;2.33;;;;;;;14.50;100.00;101523.25;4997252;28;20038;-71
2024/03/20 10:18:43;;;;;;;7.03;2.53;;;;;;;14.28;100.00;101513.28;4996585;28;20473;-71
2024/03/20 10:21:09;;;;;;;5.75;2.05;;;;;;;14.77;100.00;101537.25;5012992;28;20049;-72
2024/03/20 10:23:42;;;;;;;4.75;1.92;;;;;;;14.80;100.00;101536.88;5028794;28;20034;-70
2024/03/20 10:26:13;;;;;;;7.57;2.42;;;;;;;15.09;100.00;101546.06;5031679;28;20053;-72
2024/03/20 10:28:40;;;;;;;5.13;2.30;;;;;;;15.18;100.00;101551.19;5011257;28;20034;-73
2024/03/20 10:31:07;;;;;;;6.25;2.30;;;;;;;15.36;100.00;101548.09;5012286;28;20477;-72
2024/03/20 10:33:35;;;;;;;4.90;2.03;;;;;;;14.79;100.00;101562.28;5012583;28;20026;-73
2024/03/20 10:36:01;;;;;;;6.03;2.28;;;;;;;15.00;100.00;101561.53;4996298;28;20033;-72
2024/03/20 10:38:28;;;;;;;7.88;2.67;;;;;;;13.70;100.00;101556.09;4996307;28;20058;-73
2024/03/20 10:40:54;;;;;;;5.82;2.60;;;;;;;14.50;100.00;101561.16;4996441;28;20029;-73
2024/03/20 10:43:21;;;;;;;4.63;2.30;;;;;;;15.01;98.82;101565.09;4996390;28;20029;-73
2024/03/20 10:45:48;;;;;;;4.97;2.33;;;;;;;15.00;88.62;101549.88;5012566;28;20026;-73
2024/03/20 10:48:18;;;;;;;7.40;2.35;;;;;;;15.13;82.73;101558.19;5012745;28;20045;-72
2024/03/20 10:50:47;;;;;;;7.57;2.33;;;;;;;15.16;69.95;101571.34;5012804;28;20105;-73
2024/03/20 10:53:14;;;;;;;6.50;2.15;;;;;;;14.92;61.95;101581.44;5012413;28;20107;-71
2024/03/20 10:55:43;;;;;;;5.30;2.47;;;;;;;15.51;67.33;101566.22;5012832;28;20034;-73
2024/03/20 10:58:15;;;;;;;8.80;2.50;;;;;;;16.41;59.17;101578.53;5012196;28;20049;-71
2024/03/20 11:01:02;;;;;;;6.25;2.00;;;;;;;17.12;60.74;101590.22;4996668;28;20052;-73
2024/03/20 11:03:47;;;;;;;6.13;2.10;;;;;;;17.03;57.57;101580.53;5028941;28;20054;-73
2024/03/20 11:06:28;;;;;;;2.50;1.42;;;;;;;17.11;55.76;101583.09;4996492;28;20096;-73
2024/03/20 11:08:55;;;;;;;4.13;1.35;;;;;;;15.82;57.67;101599.41;4996260;28;20469;-73
2024/03/20 11:11:24;;;;;;;5.32;2.25;;;;;;;14.14;61.94;101604.19;5012132;28;20026;-73
2024/03/20 11:13:51;;;;;;;5.65;2.63;;;;;;;13.33;65.06;101600.81;5012031;28;20358;-73
2024/03/20 11:16:25;;;;;;;4.50;1.73;;;;;;;12.71;67.78;101601.41;5013207;28;20034;-72
2024/03/20 11:18:58;;;;;;;4.75;1.98;;;;;;;12.07;72.18;101608.44;5015864;28;20068;-72
2024/03/20 11:21:27;;;;;;;4.82;2.13;;;;;;;12.49;71.75;101607.47;5016519;28;20038;-73